sensor_id;sensor_type;location;lat;lon;timestamp;pressure;altitude;pressure_sealevel;temperature
75811;BMP280;64449;50.016;19.954;2023-04-03T00:02:08;99017.09;;;5.97
75811;BMP280;64449;50.016;19.954;2023-04-03T00:04:34;99020.23;;;5.98
75811;BMP280;64449;50.016;19.954;2023-04-03T00:07:00;99018.97;;;5.99
75811;BMP280;64449;50.016;19.954;2023-04-03T00:09:25;99016.70;;;5.97
75811;BMP280;64449;50.016;19.954;2023-04-03T00:11:51;99018.93;;;5.97
75811;BMP280;64449;50.016;19.954;2023-04-03T00:14:16;99026.83;;;5.97
75811;BMP280;64449;50.016;19.954;2023-04-03T00:16:42;99016.80;;;5.97
75811;BMP280;64449;50.016;19.954;2023-04-03T00:19:08;99019.29;;;5.91
75811;BMP280;64449;50.016;19.954;2023-04-03T00:21:33;99020.52;;;5.89
75811;BMP280;64449;50.016;19.954;2023-04-03T00:23:59;99020.90;;;5.88
75811;BMP280;64449;50.016;19.954;2023-04-03T00:26:25;99020.39;;;5.86
75811;BMP280;64449;50.016;19.954;2023-04-03T00:28:50;99019.54;;;5.83
75811;BMP280;64449;50.016;19.954;2023-04-03T00:31:16;99024.72;;;5.81
75811;BMP280;64449;50.016;19.954;2023-04-03T00:33:41;99023.88;;;5.77
75811;BMP280;64449;50.016;19.954;2023-04-03T00:36:08;99028.77;;;5.77
75811;BMP280;64449;50.016;19.954;2023-04-03T00:38:35;99029.06;;;5.74
75811;BMP280;64449;50.016;19.954;2023-04-03T00:41:01;99032.16;;;5.75
75811;BMP280;64449;50.016;19.954;2023-04-03T00:43:26;99032.79;;;5.73
75811;BMP280;64449;50.016;19.954;2023-04-03T00:45:57;99034.34;;;5.71
75811;BMP280;64449;50.016;19.954;2023-04-03T00:48:36;99035.54;;;5.69
75811;BMP280;64449;50.016;19.954;2023-04-03T00:51:04;99035.25;;;5.66
75811;BMP280;64449;50.016;19.954;2023-04-03T00:53:37;99038.11;;;5.61
75811;BMP280;64449;50.016;19.954;2023-04-03T00:56:06;99035.67;;;5.61
75811;BMP280;64449;50.016;19.954;2023-04-03T00:58:42;99038.09;;;5.62
75811;BMP280;64449;50.016;19.954;2023-04-03T01:01:12;99039.73;;;5.66
75811;BMP280;64449;50.016;19.954;2023-04-03T01:03:39;99041.92;;;5.67
75811;BMP280;64449;50.016;19.954;2023-04-03T01:06:05;99038.61;;;5.66
75811;BMP280;64449;50.016;19.954;2023-04-03T01:08:31;99043.43;;;5.66
75811;BMP280;64449;50.016;19.954;2023-04-03T01:10:56;99042.97;;;5.62
75811;BMP280;64449;50.016;19.954;2023-04-03T01:13:28;99046.86;;;5.62
75811;BMP280;64449;50.016;19.954;2023-04-03T01:15:54;99044.89;;;5.59
75811;BMP280;64449;50.016;19.954;2023-04-03T01:18:21;99051.35;;;5.58
75811;BMP280;64449;50.016;19.954;2023-04-03T01:26:16;99057.95;;;5.55
75811;BMP280;64449;50.016;19.954;2023-04-03T01:28:42;99056.59;;;5.55
75811;BMP280;64449;50.016;19.954;2023-04-03T01:31:27;99058.56;;;5.53
75811;BMP280;64449;50.016;19.954;2023-04-03T01:33:54;99058.41;;;5.50
75811;BMP280;64449;50.016;19.954;2023-04-03T01:36:23;99060.30;;;5.48
75811;BMP280;64449;50.016;19.954;2023-04-03T01:38:50;99064.48;;;5.48
75811;BMP280;64449;50.016;19.954;2023-04-03T01:41:16;99068.36;;;5.47
75811;BMP280;64449;50.016;19.954;2023-04-03T01:43:42;99070.13;;;5.46
75811;BMP280;64449;50.016;19.954;2023-04-03T01:46:07;99070.42;;;5.44
75811;BMP280;64449;50.016;19.954;2023-04-03T01:48:33;99067.50;;;5.40
75811;BMP280;64449;50.016;19.954;2023-04-03T01:50:58;99069.38;;;5.39
75811;BMP280;64449;50.016;19.954;2023-04-03T01:53:24;99074.27;;;5.35
75811;BMP280;64449;50.016;19.954;2023-04-03T01:55:50;99073.88;;;5.33
75811;BMP280;64449;50.016;19.954;2023-04-03T01:58:15;99077.33;;;5.29
75811;BMP280;64449;50.016;19.954;2023-04-03T02:00:40;99076.77;;;5.32
75811;BMP280;64449;50.016;19.954;2023-04-03T02:03:06;99078.27;;;5.32
75811;BMP280;64449;50.016;19.954;2023-04-03T02:05:32;99080.23;;;5.29
75811;BMP280;64449;50.016;19.954;2023-04-03T02:07:58;99076.59;;;5.29
75811;BMP280;64449;50.016;19.954;2023-04-03T02:10:23;99076.25;;;5.27
75811;BMP280;64449;50.016;19.954;2023-04-03T02:12:49;99077.41;;;5.29
75811;BMP280;64449;50.016;19.954;2023-04-03T02:15:14;99077.53;;;5.25
75811;BMP280;64449;50.016;19.954;2023-04-03T02:17:40;99077.31;;;5.26
75811;BMP280;64449;50.016;19.954;2023-04-03T02:20:06;99078.23;;;5.25
75811;BMP280;64449;50.016;19.954;2023-04-03T02:22:31;99075.27;;;5.26
75811;BMP280;64449;50.016;19.954;2023-04-03T02:24:57;99081.23;;;5.22
75811;BMP280;64449;50.016;19.954;2023-04-03T02:27:22;99079.29;;;5.20
75811;BMP280;64449;50.016;19.954;2023-04-03T02:29:48;99079.45;;;5.21
75811;BMP280;64449;50.016;19.954;2023-04-03T02:32:13;99081.23;;;5.22
75811;BMP280;64449;50.016;19.954;2023-04-03T02:34:38;99082.98;;;5.20
75811;BMP280;64449;50.016;19.954;2023-04-03T02:37:04;99083.72;;;5.21
75811;BMP280;64449;50.016;19.954;2023-04-03T02:39:30;99085.17;;;5.22
75811;BMP280;64449;50.016;19.954;2023-04-03T02:41:55;99085.08;;;5.23
75811;BMP280;64449;50.016;19.954;2023-04-03T02:44:21;99090.41;;;5.25
75811;BMP280;64449;50.016;19.954;2023-04-03T02:46:48;99090.18;;;5.20
75811;BMP280;64449;50.016;19.954;2023-04-03T02:49:14;99091.45;;;5.16
75811;BMP280;64449;50.016;19.954;2023-04-03T02:51:41;99093.39;;;5.15
75811;BMP280;64449;50.016;19.954;2023-04-03T02:54:06;99095.80;;;5.15
75811;BMP280;64449;50.016;19.954;2023-04-03T02:56:32;99098.05;;;5.15
75811;BMP280;64449;50.016;19.954;2023-04-03T02:58:58;99098.14;;;5.18
75811;BMP280;64449;50.016;19.954;2023-04-03T03:01:23;99104.38;;;5.18
75811;BMP280;64449;50.016;19.954;2023-04-03T03:03:48;99103.27;;;5.19
75811;BMP280;64449;50.016;19.954;2023-04-03T03:06:16;99104.80;;;5.16
75811;BMP280;64449;50.016;19.954;2023-04-03T03:08:43;99104.01;;;5.15
75811;BMP280;64449;50.016;19.954;2023-04-03T03:11:09;99105.84;;;5.15
75811;BMP280;64449;50.016;19.954;2023-04-03T03:13:35;99103.23;;;5.14
75811;BMP280;64449;50.016;19.954;2023-04-03T03:16:01;99103.80;;;5.13
75811;BMP280;64449;50.016;19.954;2023-04-03T03:18:28;99105.52;;;5.12
75811;BMP280;64449;50.016;19.954;2023-04-03T03:20:55;99103.14;;;5.12
75811;BMP280;64449;50.016;19.954;2023-04-03T03:23:22;99101.82;;;5.11
75811;BMP280;64449;50.016;19.954;2023-04-03T03:25:48;99109.64;;;5.10
75811;BMP280;64449;50.016;19.954;2023-04-03T03:28:13;99106.96;;;5.08
75811;BMP280;64449;50.016;19.954;2023-04-03T03:30:39;99104.98;;;5.08
75811;BMP280;64449;50.016;19.954;2023-04-03T03:33:04;99109.16;;;5.08
75811;BMP280;64449;50.016;19.954;2023-04-03T03:35:30;99113.48;;;5.08
75811;BMP280;64449;50.016;19.954;2023-04-03T03:37:55;99104.36;;;5.08
75811;BMP280;64449;50.016;19.954;2023-04-03T03:40:20;99110.79;;;5.06
75811;BMP280;64449;50.016;19.954;2023-04-03T03:42:46;99109.75;;;5.03
75811;BMP280;64449;50.016;19.954;2023-04-03T03:45:11;99113.25;;;5.02
75811;BMP280;64449;50.016;19.954;2023-04-03T03:47:37;99111.23;;;4.99
75811;BMP280;64449;50.016;19.954;2023-04-03T03:50:03;99118.11;;;5.01
75811;BMP280;64449;50.016;19.954;2023-04-03T03:52:28;99121.48;;;5.05
75811;BMP280;64449;50.016;19.954;2023-04-03T03:54:55;99121.42;;;5.06
75811;BMP280;64449;50.016;19.954;2023-04-03T03:57:20;99125.36;;;5.07
75811;BMP280;64449;50.016;19.954;2023-04-03T03:59:46;99123.66;;;5.01
75811;BMP280;64449;50.016;19.954;2023-04-03T04:02:12;99126.64;;;4.97
75811;BMP280;64449;50.016;19.954;2023-04-03T04:04:38;99128.66;;;4.92
75811;BMP280;64449;50.016;19.954;2023-04-03T04:07:03;99130.25;;;4.92
75811;BMP280;64449;50.016;19.954;2023-04-03T04:09:29;99133.88;;;4.90
75811;BMP280;64449;50.016;19.954;2023-04-03T04:11:55;99135.20;;;4.90
75811;BMP280;64449;50.016;19.954;2023-04-03T04:14:20;99135.14;;;4.87
75811;BMP280;64449;50.016;19.954;2023-04-03T04:16:46;99137.73;;;4.84
75811;BMP280;64449;50.016;19.954;2023-04-03T04:19:12;99137.99;;;4.79
75811;BMP280;64449;50.016;19.954;2023-04-03T04:21:38;99142.48;;;4.78
75811;BMP280;64449;50.016;19.954;2023-04-03T04:24:05;99136.32;;;4.72
75811;BMP280;64449;50.016;19.954;2023-04-03T04:26:31;99134.95;;;4.70
75811;BMP280;64449;50.016;19.954;2023-04-03T04:28:56;99141.52;;;4.71
75811;BMP280;64449;50.016;19.954;2023-04-03T04:31:21;99145.05;;;4.67
75811;BMP280;64449;50.016;19.954;2023-04-03T04:33:47;99143.23;;;4.66
75811;BMP280;64449;50.016;19.954;2023-04-03T04:36:12;99145.95;;;4.69
75811;BMP280;64449;50.016;19.954;2023-04-03T04:38:40;99147.59;;;4.72
75811;BMP280;64449;50.016;19.954;2023-04-03T04:41:05;99149.98;;;4.70
75811;BMP280;64449;50.016;19.954;2023-04-03T04:43:31;99153.70;;;4.73
75811;BMP280;64449;50.016;19.954;2023-04-03T04:48:27;99163.36;;;4.72
75811;BMP280;64449;50.016;19.954;2023-04-03T04:50:53;99166.26;;;4.72
75811;BMP280;64449;50.016;19.954;2023-04-03T04:53:18;99158.88;;;4.73
75811;BMP280;64449;50.016;19.954;2023-04-03T04:55:43;99163.05;;;4.72
75811;BMP280;64449;50.016;19.954;2023-04-03T04:58:09;99163.23;;;4.66
75811;BMP280;64449;50.016;19.954;2023-04-03T05:00:34;99166.33;;;4.68
75811;BMP280;64449;50.016;19.954;2023-04-03T05:02:59;99166.65;;;4.70
75811;BMP280;64449;50.016;19.954;2023-04-03T05:05:25;99165.66;;;4.71
75811;BMP280;64449;50.016;19.954;2023-04-03T05:07:50;99170.06;;;4.69
75811;BMP280;64449;50.016;19.954;2023-04-03T05:10:15;99174.91;;;4.69
75811;BMP280;64449;50.016;19.954;2023-04-03T05:12:41;99173.09;;;4.64
75811;BMP280;64449;50.016;19.954;2023-04-03T05:15:07;99174.90;;;4.61
75811;BMP280;64449;50.016;19.954;2023-04-03T05:17:32;99175.61;;;4.61
75811;BMP280;64449;50.016;19.954;2023-04-03T05:19:58;99178.50;;;4.67
75811;BMP280;64449;50.016;19.954;2023-04-03T05:22:23;99179.46;;;4.69
75811;BMP280;64449;50.016;19.954;2023-04-03T05:24:49;99183.18;;;4.69
75811;BMP280;64449;50.016;19.954;2023-04-03T05:27:14;99185.43;;;4.66
75811;BMP280;64449;50.016;19.954;2023-04-03T05:29:40;99187.77;;;4.67
75811;BMP280;64449;50.016;19.954;2023-04-03T05:32:09;99186.95;;;4.70
75811;BMP280;64449;50.016;19.954;2023-04-03T05:34:34;99192.11;;;4.77
75811;BMP280;64449;50.016;19.954;2023-04-03T05:37:00;99196.11;;;4.81
75811;BMP280;64449;50.016;19.954;2023-04-03T05:39:26;99195.44;;;4.84
75811;BMP280;64449;50.016;19.954;2023-04-03T05:41:51;99196.00;;;4.89
75811;BMP280;64449;50.016;19.954;2023-04-03T05:44:16;99198.18;;;4.95
75811;BMP280;64449;50.016;19.954;2023-04-03T05:46:42;99198.74;;;4.96
75811;BMP280;64449;50.016;19.954;2023-04-03T05:49:07;99200.37;;;4.93
75811;BMP280;64449;50.016;19.954;2023-04-03T05:51:39;99201.27;;;4.88
75811;BMP280;64449;50.016;19.954;2023-04-03T05:56:43;99207.81;;;4.89
75811;BMP280;64449;50.016;19.954;2023-04-03T05:59:08;99209.58;;;4.87
75811;BMP280;64449;50.016;19.954;2023-04-03T06:01:35;99211.86;;;4.90
75811;BMP280;64449;50.016;19.954;2023-04-03T06:04:00;99211.89;;;4.92
75811;BMP280;64449;50.016;19.954;2023-04-03T06:06:26;99212.66;;;4.92
75811;BMP280;64449;50.016;19.954;2023-04-03T06:08:51;99219.23;;;4.90
75811;BMP280;64449;50.016;19.954;2023-04-03T06:11:17;99225.63;;;4.87
75811;BMP280;64449;50.016;19.954;2023-04-03T06:13:42;99225.56;;;4.88
75811;BMP280;64449;50.016;19.954;2023-04-03T06:16:18;99224.29;;;4.88
75811;BMP280;64449;50.016;19.954;2023-04-03T06:18:44;99226.41;;;4.85
75811;BMP280;64449;50.016;19.954;2023-04-03T06:21:09;99229.01;;;4.78
75811;BMP280;64449;50.016;19.954;2023-04-03T06:23:35;99232.57;;;4.76
75811;BMP280;64449;50.016;19.954;2023-04-03T06:26:01;99235.29;;;4.74
75811;BMP280;64449;50.016;19.954;2023-04-03T06:28:26;99237.38;;;4.72
75811;BMP280;64449;50.016;19.954;2023-04-03T06:30:52;99239.84;;;4.72
75811;BMP280;64449;50.016;19.954;2023-04-03T06:33:17;99238.71;;;4.76
75811;BMP280;64449;50.016;19.954;2023-04-03T06:35:43;99243.51;;;4.80
75811;BMP280;64449;50.016;19.954;2023-04-03T06:38:08;99245.60;;;4.88
75811;BMP280;64449;50.016;19.954;2023-04-03T06:40:34;99245.25;;;4.95
75811;BMP280;64449;50.016;19.954;2023-04-03T06:43:00;99246.83;;;4.97
75811;BMP280;64449;50.016;19.954;2023-04-03T06:45:26;99245.77;;;5.00
75811;BMP280;64449;50.016;19.954;2023-04-03T06:47:53;99255.70;;;5.02
75811;BMP280;64449;50.016;19.954;2023-04-03T06:50:18;99258.67;;;5.08
75811;BMP280;64449;50.016;19.954;2023-04-03T06:52:45;99258.32;;;5.15
75811;BMP280;64449;50.016;19.954;2023-04-03T06:55:10;99260.69;;;5.17
75811;BMP280;64449;50.016;19.954;2023-04-03T06:57:36;99261.73;;;5.17
75811;BMP280;64449;50.016;19.954;2023-04-03T07:00:03;99263.92;;;5.20
75811;BMP280;64449;50.016;19.954;2023-04-03T07:02:30;99261.22;;;5.24
75811;BMP280;64449;50.016;19.954;2023-04-03T07:04:56;99261.27;;;5.25
75811;BMP280;64449;50.016;19.954;2023-04-03T07:07:22;99260.88;;;5.26
75811;BMP280;64449;50.016;19.954;2023-04-03T07:09:47;99261.14;;;5.29
75811;BMP280;64449;50.016;19.954;2023-04-03T07:12:13;99265.78;;;5.32
75811;BMP280;64449;50.016;19.954;2023-04-03T07:14:39;99269.05;;;5.36
75811;BMP280;64449;50.016;19.954;2023-04-03T07:17:04;99264.71;;;5.43
75811;BMP280;64449;50.016;19.954;2023-04-03T07:19:29;99274.84;;;5.43
75811;BMP280;64449;50.016;19.954;2023-04-03T07:21:56;99269.91;;;5.47
75811;BMP280;64449;50.016;19.954;2023-04-03T07:24:22;99273.61;;;5.50
75811;BMP280;64449;50.016;19.954;2023-04-03T07:26:52;99276.98;;;5.55
75811;BMP280;64449;50.016;19.954;2023-04-03T07:29:18;99276.42;;;5.56
75811;BMP280;64449;50.016;19.954;2023-04-03T07:31:44;99283.29;;;5.49
75811;BMP280;64449;50.016;19.954;2023-04-03T07:34:10;99288.42;;;5.46
75811;BMP280;64449;50.016;19.954;2023-04-03T07:36:36;99288.69;;;5.42
75811;BMP280;64449;50.016;19.954;2023-04-03T07:39:03;99293.83;;;5.47
75811;BMP280;64449;50.016;19.954;2023-04-03T07:41:28;99289.87;;;5.53
75811;BMP280;64449;50.016;19.954;2023-04-03T07:43:54;99297.02;;;5.56
75811;BMP280;64449;50.016;19.954;2023-04-03T07:46:21;99294.41;;;5.62
75811;BMP280;64449;50.016;19.954;2023-04-03T07:48:47;99295.77;;;5.77
75811;BMP280;64449;50.016;19.954;2023-04-03T07:51:12;99293.30;;;5.98
75811;BMP280;64449;50.016;19.954;2023-04-03T07:53:38;99302.23;;;6.24
75811;BMP280;64449;50.016;19.954;2023-04-03T07:56:04;99302.91;;;6.52
75811;BMP280;64449;50.016;19.954;2023-04-03T07:58:30;99310.98;;;6.81
75811;BMP280;64449;50.016;19.954;2023-04-03T08:00:55;99307.27;;;7.13
75811;BMP280;64449;50.016;19.954;2023-04-03T08:03:21;99310.03;;;7.41
75811;BMP280;64449;50.016;19.954;2023-04-03T08:05:48;99310.02;;;7.71
75811;BMP280;64449;50.016;19.954;2023-04-03T08:08:17;99307.39;;;7.90
75811;BMP280;64449;50.016;19.954;2023-04-03T08:10:43;99305.26;;;8.07
75811;BMP280;64449;50.016;19.954;2023-04-03T08:13:09;99306.27;;;8.17
75811;BMP280;64449;50.016;19.954;2023-04-03T08:15:35;99309.65;;;8.29
75811;BMP280;64449;50.016;19.954;2023-04-03T08:18:01;99310.20;;;8.41
75811;BMP280;64449;50.016;19.954;2023-04-03T08:20:27;99310.05;;;8.61
75811;BMP280;64449;50.016;19.954;2023-04-03T08:22:53;99314.36;;;8.74
75811;BMP280;64449;50.016;19.954;2023-04-03T08:25:19;99317.42;;;8.78
75811;BMP280;64449;50.016;19.954;2023-04-03T08:27:44;99317.79;;;8.77
75811;BMP280;64449;50.016;19.954;2023-04-03T08:30:10;99316.55;;;8.74
75811;BMP280;64449;50.016;19.954;2023-04-03T08:32:36;99317.27;;;8.59
75811;BMP280;64449;50.016;19.954;2023-04-03T08:35:03;99318.90;;;8.51
75811;BMP280;64449;50.016;19.954;2023-04-03T08:37:28;99321.29;;;8.52
75811;BMP280;64449;50.016;19.954;2023-04-03T08:39:54;99324.58;;;8.66
75811;BMP280;64449;50.016;19.954;2023-04-03T08:45:12;99327.38;;;8.80
75811;BMP280;64449;50.016;19.954;2023-04-03T08:50:19;99331.60;;;8.63
75811;BMP280;64449;50.016;19.954;2023-04-03T08:52:52;99330.32;;;8.59
75811;BMP280;64449;50.016;19.954;2023-04-03T08:55:43;99329.95;;;8.53
75811;BMP280;64449;50.016;19.954;2023-04-03T08:58:21;99332.82;;;8.51
75811;BMP280;64449;50.016;19.954;2023-04-03T09:00:50;99337.88;;;8.63
75811;BMP280;64449;50.016;19.954;2023-04-03T09:03:18;99336.39;;;8.71
75811;BMP280;64449;50.016;19.954;2023-04-03T09:06:13;99340.08;;;8.55
75811;BMP280;64449;50.016;19.954;2023-04-03T09:08:44;99340.42;;;8.34
75811;BMP280;64449;50.016;19.954;2023-04-03T09:11:44;99340.02;;;8.24
75811;BMP280;64449;50.016;19.954;2023-04-03T09:16:54;99342.53;;;8.07
75811;BMP280;64449;50.016;19.954;2023-04-03T09:21:57;99344.40;;;7.79
75811;BMP280;64449;50.016;19.954;2023-04-03T09:24:23;99350.15;;;7.65
75811;BMP280;64449;50.016;19.954;2023-04-03T09:26:59;99350.73;;;7.52
75811;BMP280;64449;50.016;19.954;2023-04-03T09:29:27;99354.77;;;7.43
75811;BMP280;64449;50.016;19.954;2023-04-03T09:31:58;99358.70;;;7.28
75811;BMP280;64449;50.016;19.954;2023-04-03T09:34:31;99366.76;;;7.16
75811;BMP280;64449;50.016;19.954;2023-04-03T09:37:02;99373.36;;;7.06
75811;BMP280;64449;50.016;19.954;2023-04-03T09:39:49;99382.22;;;6.95
75811;BMP280;64449;50.016;19.954;2023-04-03T09:42:23;99384.50;;;6.86
75811;BMP280;64449;50.016;19.954;2023-04-03T09:45:00;99390.07;;;6.79
75811;BMP280;64449;50.016;19.954;2023-04-03T09:47:31;99391.71;;;6.72
75811;BMP280;64449;50.016;19.954;2023-04-03T09:52:46;99389.70;;;6.62
75811;BMP280;64449;50.016;19.954;2023-04-03T09:55:24;99393.57;;;6.62
75811;BMP280;64449;50.016;19.954;2023-04-03T09:58:03;99397.65;;;6.62
75811;BMP280;64449;50.016;19.954;2023-04-03T10:00:37;99398.34;;;6.60
75811;BMP280;64449;50.016;19.954;2023-04-03T10:03:05;99396.71;;;6.59
75811;BMP280;64449;50.016;19.954;2023-04-03T10:05:34;99400.52;;;6.58
75811;BMP280;64449;50.016;19.954;2023-04-03T10:10:38;99401.13;;;6.61
75811;BMP280;64449;50.016;19.954;2023-04-03T10:13:15;99400.96;;;6.55
75811;BMP280;64449;50.016;19.954;2023-04-03T10:15:55;99401.85;;;6.57
75811;BMP280;64449;50.016;19.954;2023-04-03T10:38:09;99400.77;;;6.98
75811;BMP280;64449;50.016;19.954;2023-04-03T10:41:15;99402.65;;;7.05
75811;BMP280;64449;50.016;19.954;2023-04-03T10:44:05;99402.37;;;7.05
75811;BMP280;64449;50.016;19.954;2023-04-03T10:46:38;99404.50;;;7.05
75811;BMP280;64449;50.016;19.954;2023-04-03T10:54:45;99406.80;;;7.10
75811;BMP280;64449;50.016;19.954;2023-04-03T10:57:13;99407.04;;;7.11
75811;BMP280;64449;50.016;19.954;2023-04-03T10:59:55;99405.31;;;7.16
75811;BMP280;64449;50.016;19.954;2023-04-03T11:02:28;99407.89;;;7.17
75811;BMP280;64449;50.016;19.954;2023-04-03T11:05:07;99407.89;;;7.17
75811;BMP280;64449;50.016;19.954;2023-04-03T11:07:42;99406.27;;;7.25
75811;BMP280;64449;50.016;19.954;2023-04-03T11:10:23;99403.41;;;7.28
75811;BMP280;64449;50.016;19.954;2023-04-03T11:13:01;99408.48;;;7.31
75811;BMP280;64449;50.016;19.954;2023-04-03T11:15:27;99411.81;;;7.33
75811;BMP280;64449;50.016;19.954;2023-04-03T11:17:57;99414.45;;;7.33
75811;BMP280;64449;50.016;19.954;2023-04-03T11:20:30;99413.48;;;7.31
75811;BMP280;64449;50.016;19.954;2023-04-03T11:23:34;99414.09;;;7.30
75811;BMP280;64449;50.016;19.954;2023-04-03T11:26:29;99414.70;;;7.39
75811;BMP280;64449;50.016;19.954;2023-04-03T11:29:00;99413.72;;;7.52
75811;BMP280;64449;50.016;19.954;2023-04-03T11:37:00;99406.51;;;11.17
75811;BMP280;64449;50.016;19.954;2023-04-03T11:39:30;99408.55;;;12.62
75811;BMP280;64449;50.016;19.954;2023-04-03T11:44:40;99407.26;;;13.96
75811;BMP280;64449;50.016;19.954;2023-04-03T11:47:11;99406.25;;;13.68
75811;BMP280;64449;50.016;19.954;2023-04-03T11:50:59;99400.54;;;13.24
75811;BMP280;64449;50.016;19.954;2023-04-03T12:13:36;99379.52;;;11.75
75811;BMP280;64449;50.016;19.954;2023-04-03T12:16:04;99382.17;;;11.60
75811;BMP280;64449;50.016;19.954;2023-04-03T12:18:53;99386.86;;;11.50
75811;BMP280;64449;50.016;19.954;2023-04-03T12:26:47;99389.04;;;11.27
75811;BMP280;64449;50.016;19.954;2023-04-03T12:46:49;99383.23;;;11.67
75811;BMP280;64449;50.016;19.954;2023-04-03T12:49:30;99387.48;;;11.55
75811;BMP280;64449;50.016;19.954;2023-04-03T12:51:57;99386.38;;;11.50
75811;BMP280;64449;50.016;19.954;2023-04-03T12:54:32;99376.69;;;11.41
75811;BMP280;64449;50.016;19.954;2023-04-03T12:57:11;99382.77;;;11.10
75811;BMP280;64449;50.016;19.954;2023-04-03T12:59:37;99385.69;;;11.07
75811;BMP280;64449;50.016;19.954;2023-04-03T13:02:14;99388.31;;;11.13
75811;BMP280;64449;50.016;19.954;2023-04-03T13:04:42;99391.08;;;11.28
75811;BMP280;64449;50.016;19.954;2023-04-03T13:12:45;99387.89;;;11.56
75811;BMP280;64449;50.016;19.954;2023-04-03T13:17:45;99385.81;;;11.47
75811;BMP280;64449;50.016;19.954;2023-04-03T13:20:37;99379.46;;;11.50
75811;BMP280;64449;50.016;19.954;2023-04-03T13:23:10;99379.73;;;11.42
75811;BMP280;64449;50.016;19.954;2023-04-03T13:25:42;99377.64;;;11.30
75811;BMP280;64449;50.016;19.954;2023-04-03T13:28:14;99373.14;;;11.33
75811;BMP280;64449;50.016;19.954;2023-04-03T13:31:04;99371.77;;;11.30
75811;BMP280;64449;50.016;19.954;2023-04-03T13:33:36;99371.55;;;11.33
75811;BMP280;64449;50.016;19.954;2023-04-03T13:36:08;99374.94;;;11.39
75811;BMP280;64449;50.016;19.954;2023-04-03T13:38:41;99373.33;;;11.47
75811;BMP280;64449;50.016;19.954;2023-04-03T13:41:46;99376.05;;;11.46
75811;BMP280;64449;50.016;19.954;2023-04-03T13:44:25;99371.42;;;11.45
75811;BMP280;64449;50.016;19.954;2023-04-03T13:49:43;99377.08;;;11.26
75811;BMP280;64449;50.016;19.954;2023-04-03T13:52:29;99377.44;;;11.40
75811;BMP280;64449;50.016;19.954;2023-04-03T13:55:00;99376.23;;;11.57
75811;BMP280;64449;50.016;19.954;2023-04-03T13:57:27;99370.96;;;11.67
75811;BMP280;64449;50.016;19.954;2023-04-03T13:59:53;99370.54;;;11.83
75811;BMP280;64449;50.016;19.954;2023-04-03T14:02:30;99372.10;;;11.87
75811;BMP280;64449;50.016;19.954;2023-04-03T14:04:58;99366.83;;;11.85
75811;BMP280;64449;50.016;19.954;2023-04-03T14:07:27;99362.73;;;11.83
75811;BMP280;64449;50.016;19.954;2023-04-03T14:09:53;99368.20;;;11.79
75811;BMP280;64449;50.016;19.954;2023-04-03T14:12:25;99366.74;;;11.83
75811;BMP280;64449;50.016;19.954;2023-04-03T14:14:52;99371.64;;;11.84
75811;BMP280;64449;50.016;19.954;2023-04-03T14:17:24;99370.36;;;11.62
75811;BMP280;64449;50.016;19.954;2023-04-03T14:19:50;99370.52;;;11.56
75811;BMP280;64449;50.016;19.954;2023-04-03T14:22:19;99369.45;;;11.49
75811;BMP280;64449;50.016;19.954;2023-04-03T14:24:48;99369.14;;;11.49
75811;BMP280;64449;50.016;19.954;2023-04-03T14:27:20;99373.23;;;11.51
75811;BMP280;64449;50.016;19.954;2023-04-03T14:29:49;99365.59;;;11.51
75811;BMP280;64449;50.016;19.954;2023-04-03T14:32:17;99365.61;;;11.44
75811;BMP280;64449;50.016;19.954;2023-04-03T14:34:43;99366.89;;;11.32
75811;BMP280;64449;50.016;19.954;2023-04-03T14:37:14;99364.56;;;11.03
75811;BMP280;64449;50.016;19.954;2023-04-03T14:39:40;99361.44;;;10.95
75811;BMP280;64449;50.016;19.954;2023-04-03T14:42:15;99363.77;;;10.85
75811;BMP280;64449;50.016;19.954;2023-04-03T14:44:41;99361.56;;;10.77
75811;BMP280;64449;50.016;19.954;2023-04-03T14:47:16;99359.30;;;10.64
75811;BMP280;64449;50.016;19.954;2023-04-03T14:49:43;99357.43;;;10.49
75811;BMP280;64449;50.016;19.954;2023-04-03T14:52:26;99356.32;;;10.39
75811;BMP280;64449;50.016;19.954;2023-04-03T14:54:52;99354.84;;;10.32
75811;BMP280;64449;50.016;19.954;2023-04-03T14:57:22;99356.80;;;10.25
75811;BMP280;64449;50.016;19.954;2023-04-03T14:59:49;99356.88;;;10.24
75811;BMP280;64449;50.016;19.954;2023-04-03T15:02:30;99354.77;;;10.23
75811;BMP280;64449;50.016;19.954;2023-04-03T15:04:56;99358.99;;;10.25
75811;BMP280;64449;50.016;19.954;2023-04-03T15:07:24;99356.14;;;10.23
75811;BMP280;64449;50.016;19.954;2023-04-03T15:09:50;99359.66;;;10.16
75811;BMP280;64449;50.016;19.954;2023-04-03T15:12:16;99349.69;;;10.03
75811;BMP280;64449;50.016;19.954;2023-04-03T15:14:41;99353.09;;;10.05
75811;BMP280;64449;50.016;19.954;2023-04-03T15:17:15;99352.48;;;10.11
75811;BMP280;64449;50.016;19.954;2023-04-03T15:19:41;99341.63;;;10.17
75811;BMP280;64449;50.016;19.954;2023-04-03T15:22:15;99347.14;;;10.18
75811;BMP280;64449;50.016;19.954;2023-04-03T15:24:42;99347.50;;;10.26
75811;BMP280;64449;50.016;19.954;2023-04-03T15:27:08;99345.16;;;10.29
75811;BMP280;64449;50.016;19.954;2023-04-03T15:29:34;99347.80;;;10.40
75811;BMP280;64449;50.016;19.954;2023-04-03T15:31:59;99348.73;;;10.47
75811;BMP280;64449;50.016;19.954;2023-04-03T15:34:25;99349.34;;;10.39
75811;BMP280;64449;50.016;19.954;2023-04-03T15:36:51;99347.00;;;10.35
75811;BMP280;64449;50.016;19.954;2023-04-03T15:39:20;99348.32;;;10.32
75811;BMP280;64449;50.016;19.954;2023-04-03T15:41:46;99344.39;;;10.26
75811;BMP280;64449;50.016;19.954;2023-04-03T15:44:12;99344.22;;;10.16
75811;BMP280;64449;50.016;19.954;2023-04-03T15:46:39;99344.85;;;10.11
75811;BMP280;64449;50.016;19.954;2023-04-03T15:49:05;99343.61;;;10.07
75811;BMP280;64449;50.016;19.954;2023-04-03T15:51:31;99350.88;;;10.10
75811;BMP280;64449;50.016;19.954;2023-04-03T15:53:56;99347.95;;;10.13
75811;BMP280;64449;50.016;19.954;2023-04-03T15:56:21;99347.25;;;10.07
75811;BMP280;64449;50.016;19.954;2023-04-03T15:58:47;99349.59;;;10.00
75811;BMP280;64449;50.016;19.954;2023-04-03T16:01:12;99348.08;;;9.91
75811;BMP280;64449;50.016;19.954;2023-04-03T16:03:40;99347.33;;;9.78
75811;BMP280;64449;50.016;19.954;2023-04-03T16:06:14;99345.67;;;9.63
75811;BMP280;64449;50.016;19.954;2023-04-03T16:08:41;99347.80;;;9.53
75811;BMP280;64449;50.016;19.954;2023-04-03T16:11:07;99348.15;;;9.42